Time;durP1;ratioP1;P1;durP2;ratioP2;P2;SDS_P1;SDS_P2;PMS_P1;PMS_P2;Temp;Humidity;BMP_temperature;BMP_pressure;BME280_temperature;BME280_humidity;BME280_pressure;Samples;Min_cycle;Max_cycle;Signal;HPM_P1;HPM_P2
2023/04/12 00:00:41;;;;;;;5.07;2.00;;;;;;;-145.69;100.00;52293.88;5073881;28;20187;-79
2023/04/12 00:03:09;;;;;;;6.40;2.10;;;;;;;-145.69;100.00;52317.66;5074067;28;20229;-80
2023/04/12 00:05:37;;;;;;;5.20;1.90;;;;;;;-145.69;100.00;52301.81;5074045;28;20206;-80
2023/04/12 00:08:05;;;;;;;7.37;2.53;;;;;;;-145.69;100.00;52299.81;5073531;28;20645;-79
2023/04/12 00:10:31;;;;;;;5.67;1.80;;;;;;;-145.69;100.00;52329.53;5074175;28;20195;-80
2023/04/12 00:12:58;;;;;;;7.87;2.07;;;;;;;-145.69;100.00;52276.06;5073979;28;20214;-79
2023/04/12 00:15:24;;;;;;;8.80;1.97;;;;;;;-145.69;100.00;52293.88;5073907;28;20206;-80
2023/04/12 00:17:50;;;;;;;6.17;2.10;;;;;;;-145.69;100.00;52297.84;5074047;28;20206;-80
2023/04/12 00:20:17;;;;;;;3.93;1.70;;;;;;;-145.69;100.00;52289.91;5073943;28;20206;-79
2023/04/12 00:22:45;;;;;;;5.30;1.90;;;;;;;-145.69;100.00;52321.59;5073647;28;20222;-80
2023/04/12 00:25:11;;;;;;;6.27;2.20;;;;;;;-145.69;100.00;52321.59;5073490;28;20557;-80
2023/04/12 00:27:38;;;;;;;5.13;1.90;;;;;;;-145.69;100.00;52303.78;5073682;28;20674;-80
2023/04/12 00:30:07;;;;;;;3.43;1.87;;;;;;;-145.69;100.00;52301.81;5073062;28;20226;-79
2023/04/12 00:32:33;;;;;;;8.43;1.70;;;;;;;-145.69;100.00;52293.88;5073362;28;20629;-79
2023/04/12 00:35:00;;;;;;;3.67;1.90;;;;;;;-145.69;100.00;52289.91;5073807;28;20198;-80
2023/04/12 00:37:26;;;;;;;2.97;1.27;;;;;;;-145.69;100.00;52293.88;5073568;28;20203;-80
2023/04/12 00:39:54;;;;;;;7.27;1.40;;;;;;;-145.69;100.00;52305.75;5073587;28;20195;-80
2023/04/12 00:42:21;;;;;;;4.90;1.60;;;;;;;-145.69;100.00;52341.41;5073358;28;20199;-80
2023/04/12 00:44:47;;;;;;;5.13;1.53;;;;;;;-145.69;100.00;52349.31;5073040;28;20234;-81
2023/04/12 00:47:14;;;;;;;1.93;1.20;;;;;;;-145.69;100.00;52341.41;5073507;28;20199;-80
2023/04/12 00:49:40;;;;;;;1.73;1.10;;;;;;;-145.69;100.00;52329.53;5073445;28;20203;-81
2023/04/12 00:52:08;;;;;;;2.30;0.83;;;;;;;-145.69;100.00;52325.56;5072985;28;20210;-80
2023/04/12 00:54:35;;;;;;;1.67;1.10;;;;;;;-145.69;100.00;52303.78;5072768;28;20469;-80
2023/04/12 00:57:03;;;;;;;2.67;1.20;;;;;;;-145.69;100.00;52307.75;5073149;28;20460;-79
2023/04/12 00:59:30;;;;;;;1.33;0.90;;;;;;;-145.69;100.00;52289.91;5065985;28;20200;-80
2023/04/12 01:01:58;;;;;;;4.27;1.10;;;;;;;-145.69;100.00;52278.03;5067157;28;20203;-80
2023/04/12 01:04:26;;;;;;;2.93;1.23;;;;;;;-145.69;100.00;52315.66;5071949;28;20520;-79
2023/04/12 01:07:05;;;;;;;1.50;1.00;;;;;;;-145.69;100.00;52319.63;5072847;28;20222;-79
2023/04/12 01:09:39;;;;;;;2.70;1.30;;;;;;;-145.69;100.00;52317.66;5073092;28;20206;-79
2023/04/12 01:12:16;;;;;;;2.57;1.30;;;;;;;-145.69;100.00;52309.72;5073110;28;20205;-79
2023/04/12 01:14:48;;;;;;;3.10;1.10;;;;;;;-145.69;100.00;52321.59;5073201;28;20214;-79
2023/04/12 01:17:20;;;;;;;3.87;1.13;;;;;;;-145.69;100.00;52321.59;5073043;28;20206;-80
2023/04/12 01:19:56;;;;;;;2.73;1.00;;;;;;;-145.69;100.00;52333.47;5072894;28;20199;-80
2023/04/12 01:22:46;;;;;;;2.83;1.10;;;;;;;-145.69;100.00;52268.13;5072422;28;20222;-80
2023/04/12 01:25:31;;;;;;;4.23;1.30;;;;;;;-145.69;100.00;52295.84;5053037;28;20209;-79
2023/04/12 01:28:02;;;;;;;3.10;1.10;;;;;;;-145.69;100.00;52349.31;5052613;28;20210;-78
2023/04/12 01:30:30;;;;;;;5.90;1.23;;;;;;;-145.69;100.00;52323.59;5053940;28;20262;-80
2023/04/12 01:32:59;;;;;;;1.10;1.00;;;;;;;-145.69;100.00;52347.34;5072814;28;20557;-79
2023/04/12 01:35:30;;;;;;;3.27;1.60;;;;;;;-145.69;100.00;52341.41;5072908;28;20198;-79
2023/04/12 01:37:57;;;;;;;3.20;1.37;;;;;;;-145.69;100.00;52355.28;5072200;28;20195;-79
2023/04/12 01:40:26;;;;;;;1.33;1.03;;;;;;;-145.69;100.00;52311.69;5072657;28;20203;-80
2023/04/12 01:43:03;;;;;;;1.77;1.20;;;;;;;-145.69;100.00;52361.22;5076512;28;20255;-79
2023/04/12 01:45:31;;;;;;;2.10;1.27;;;;;;;-145.69;100.00;52339.44;5076757;28;20446;-79
2023/04/12 01:47:57;;;;;;;1.10;1.00;;;;;;;-145.69;100.00;52329.53;5076887;28;20194;-79
2023/04/12 01:50:33;;;;;;;1.93;1.20;;;;;;;-145.69;100.00;52329.53;5076535;28;20190;-79
2023/04/12 01:53:03;;;;;;;2.93;1.30;;;;;;;-145.69;100.00;52317.66;5076451;28;20198;-79
2023/04/12 01:55:32;;;;;;;4.23;1.50;;;;;;;-145.69;100.00;52349.31;5076631;28;20224;-79
2023/04/12 01:58:00;;;;;;;4.77;1.70;;;;;;;-145.69;100.00;52339.44;5076462;28;20568;-79
2023/04/12 02:00:27;;;;;;;2.27;1.40;;;;;;;-145.69;100.00;52333.47;5075547;28;20207;-80
2023/04/12 02:02:56;;;;;;;2.10;1.27;;;;;;;-145.69;100.00;52309.72;5076250;28;20194;-79
2023/04/12 02:05:24;;;;;;;2.47;1.30;;;;;;;-145.69;100.00;52319.63;5076469;28;20195;-79
2023/04/12 02:07:51;;;;;;;2.47;1.20;;;;;;;-145.69;100.00;52323.59;5076202;28;20202;-79
2023/04/12 02:10:27;;;;;;;4.40;1.40;;;;;;;-145.69;100.00;52355.28;5076342;28;20550;-80
2023/04/12 02:12:54;;;;;;;4.37;1.40;;;;;;;-145.69;100.00;52317.66;5076435;28;20206;-79
2023/04/12 02:15:21;;;;;;;2.67;1.23;;;;;;;-145.69;100.00;52345.38;5076287;28;20673;-80
2023/04/12 02:17:47;;;;;;;3.63;1.00;;;;;;;-145.69;100.00;52355.28;5076036;28;20209;-80
2023/04/12 02:20:16;;;;;;;1.83;1.30;;;;;;;-145.69;100.00;52335.47;5075925;28;20198;-80
2023/04/12 02:22:43;;;;;;;2.43;1.40;;;;;;;-145.69;100.00;52299.81;5075273;28;20210;-80
2023/04/12 02:25:09;;;;;;;1.53;1.20;;;;;;;-145.69;100.00;52327.53;5075995;28;20314;-79
2023/04/12 02:27:36;;;;;;;3.37;1.23;;;;;;;-145.69;100.00;52319.63;5075796;28;20214;-80
2023/04/12 02:30:03;;;;;;;2.95;1.33;;;;;;;-145.69;100.00;52317.66;5074793;28;20425;-79
2023/04/12 02:32:31;;;;;;;2.53;1.40;;;;;;;-145.69;100.00;52321.59;5075748;28;20624;-79
2023/04/12 02:34:59;;;;;;;1.90;1.30;;;;;;;-145.69;100.00;52337.44;5075821;28;20657;-79
2023/04/12 02:37:28;;;;;;;6.23;1.20;;;;;;;-145.69;100.00;52361.22;5076010;28;20767;-79
2023/04/12 02:39:55;;;;;;;1.60;1.10;;;;;;;-145.69;100.00;52349.31;5075928;28;20210;-80
2023/04/12 02:42:22;;;;;;;2.93;1.13;;;;;;;-145.69;100.00;52341.41;5075873;28;20233;-79
2023/04/12 02:44:48;;;;;;;4.50;1.40;;;;;;;-145.69;100.00;52333.47;5075269;28;20235;-79
2023/04/12 02:47:15;;;;;;;2.50;1.40;;;;;;;-145.69;100.00;52351.31;5075573;28;20206;-79
2023/04/12 02:49:41;;;;;;;4.17;1.30;;;;;;;-145.69;100.00;52353.28;5075859;28;20209;-80
2023/04/12 02:52:08;;;;;;;3.13;1.30;;;;;;;-145.69;100.00;52313.69;5075256;28;20225;-79
2023/04/12 02:54:35;;;;;;;4.23;1.30;;;;;;;-145.69;100.00;52349.31;5075407;28;20561;-79
2023/04/12 02:57:02;;;;;;;3.83;1.37;;;;;;;-145.69;100.00;52329.53;5075659;28;20651;-80
2023/04/12 02:59:29;;;;;;;3.70;1.37;;;;;;;-145.69;100.00;52349.31;5074949;28;20245;-80
2023/04/12 03:01:56;;;;;;;1.43;1.33;;;;;;;-145.69;100.00;52357.25;5074468;28;20207;-80
2023/04/12 03:04:29;;;;;;;2.53;1.40;;;;;;;-145.69;100.00;52323.59;5075636;28;20223;-79
2023/04/12 03:06:55;;;;;;;1.83;1.43;;;;;;;-145.69;100.00;52355.28;5073602;28;20202;-79
2023/04/12 03:09:22;;;;;;;4.53;1.33;;;;;;;-145.69;100.00;52365.16;5056731;28;20550;-79
2023/04/12 03:11:50;;;;;;;2.63;1.20;;;;;;;-145.69;100.00;52345.38;5055220;28;20204;-79
2023/04/12 03:14:17;;;;;;;2.93;1.43;;;;;;;-145.69;100.00;52309.72;5055140;28;20212;-79
2023/04/12 03:16:43;;;;;;;2.17;1.30;;;;;;;-145.69;100.00;52339.44;5055163;28;20207;-79
2023/04/12 03:19:10;;;;;;;2.50;1.40;;;;;;;-145.69;100.00;52341.41;5061083;28;20223;-79
2023/04/12 03:21:36;;;;;;;5.13;1.43;;;;;;;-145.69;100.00;52337.44;5075203;28;20194;-80
2023/04/12 03:24:04;;;;;;;3.97;1.40;;;;;;;-145.69;100.00;52369.13;5074685;28;20226;-80
2023/04/12 03:26:30;;;;;;;3.47;1.50;;;;;;;-145.69;100.00;52351.31;5075053;28;20226;-81
2023/04/12 03:29:03;;;;;;;3.63;1.70;;;;;;;-145.69;100.00;52361.22;5074689;28;20210;-79
2023/04/12 03:31:30;;;;;;;4.47;1.57;;;;;;;-145.69;100.00;52373.09;5074509;28;20195;-80
2023/04/12 03:33:57;;;;;;;3.20;1.30;;;;;;;-145.69;100.00;52369.13;5073010;28;20195;-80
2023/04/12 03:36:23;;;;;;;4.17;1.50;;;;;;;-145.69;100.00;52323.59;5073856;28;20202;-81
2023/04/12 03:38:50;;;;;;;5.63;1.50;;;;;;;-145.69;100.00;52381.00;5074190;28;20202;-81
2023/04/12 03:41:16;;;;;;;3.33;1.93;;;;;;;-145.69;100.00;52371.13;5074204;28;20195;-81
2023/04/12 03:43:42;;;;;;;4.37;1.40;;;;;;;-145.69;100.00;52361.22;5074253;28;20238;-79
2023/04/12 03:46:10;;;;;;;7.50;1.80;;;;;;;-145.69;100.00;52365.16;5074663;28;20194;-80
2023/04/12 03:48:37;;;;;;;7.87;1.93;;;;;;;-145.69;100.00;52392.91;5074498;28;20217;-81
2023/04/12 03:51:06;;;;;;;2.63;1.73;;;;;;;-145.69;100.00;52365.16;5074440;28;20202;-80
2023/04/12 03:53:33;;;;;;;3.97;1.80;;;;;;;-145.69;100.00;52361.22;5074479;28;20683;-80
2023/04/12 03:55:59;;;;;;;5.50;1.73;;;;;;;-145.69;100.00;52357.25;5074262;28;20207;-80
2023/04/12 03:58:26;;;;;;;4.37;1.70;;;;;;;-145.69;100.00;52377.06;5074310;28;20203;-80
2023/04/12 04:00:52;;;;;;;3.43;1.60;;;;;;;-145.69;100.00;52339.44;5073597;28;20205;-80
2023/04/12 04:03:25;;;;;;;5.67;1.87;;;;;;;-145.69;100.00;52377.06;5073301;28;20194;-81
2023/04/12 04:05:52;;;;;;;2.93;1.80;;;;;;;-145.69;100.00;52353.28;5074001;28;20222;-81
2023/04/12 04:08:18;;;;;;;2.30;1.60;;;;;;;-145.69;100.00;52335.47;5074214;28;20199;-81
2023/04/12 04:10:46;;;;;;;3.70;1.80;;;;;;;-145.69;100.00;52349.31;5074102;28;20203;-81
2023/04/12 04:13:12;;;;;;;4.67;1.90;;;;;;;-145.69;100.00;52339.44;5074276;28;20202;-81
2023/04/12 04:15:39;;;;;;;2.83;1.80;;;;;;;-145.69;100.00;52355.28;5073815;28;20194;-82
2023/04/12 04:18:05;;;;;;;2.43;1.63;;;;;;;-145.69;100.00;52353.28;5073833;28;20199;-82
2023/04/12 04:20:33;;;;;;;4.50;2.00;;;;;;;-145.69;100.00;52329.53;5073805;28;20199;-82
2023/04/12 04:22:59;;;;;;;3.10;1.67;;;;;;;-145.69;100.00;52325.56;5073891;28;20206;-81
2023/04/12 04:25:28;;;;;;;3.30;1.67;;;;;;;-145.69;100.00;52321.59;5074048;28;20265;-81
2023/04/12 04:27:55;;;;;;;4.13;1.93;;;;;;;-145.69;100.00;52357.25;5073912;28;20234;-82
2023/04/12 04:30:21;;;;;;;6.10;1.90;;;;;;;-145.69;100.00;52379.03;5073910;28;20206;-82
2023/04/12 04:32:48;;;;;;;2.07;1.50;;;;;;;-145.69;100.00;52335.47;5073414;28;20209;-81
2023/04/12 04:35:15;;;;;;;4.20;1.93;;;;;;;-145.69;100.00;52377.06;5073780;28;20207;-82
2023/04/12 04:37:43;;;;;;;2.33;1.57;;;;;;;-145.69;100.00;52343.38;5073126;28;20531;-81
2023/04/12 04:40:11;;;;;;;4.30;1.70;;;;;;;-145.69;100.00;52343.38;5073701;28;20557;-82
2023/04/12 04:42:38;;;;;;;2.80;1.40;;;;;;;-145.69;100.00;52345.38;5073279;28;20195;-81
2023/04/12 04:45:12;;;;;;;4.30;1.67;;;;;;;-145.69;100.00;52367.16;5073363;28;20265;-81
2023/04/12 04:47:39;;;;;;;3.70;1.53;;;;;;;-145.69;100.00;52345.38;5073420;28;20207;-81
2023/04/12 04:50:06;;;;;;;3.57;1.60;;;;;;;-145.69;100.00;52367.16;5073278;28;20203;-80
2023/04/12 04:52:33;;;;;;;2.10;1.67;;;;;;;-145.69;100.00;52339.44;5073222;28;20210;-81
2023/04/12 04:55:01;;;;;;;5.50;2.03;;;;;;;-145.69;100.00;52351.31;5073495;28;20195;-80
2023/04/12 04:57:27;;;;;;;3.47;1.93;;;;;;;-145.69;100.00;52367.16;5073230;28;20653;-80
2023/04/12 04:59:54;;;;;;;3.70;1.57;;;;;;;-145.69;100.00;52347.34;5073300;28;20202;-80
2023/04/12 05:02:20;;;;;;;7.70;1.90;;;;;;;-145.69;100.00;52369.13;5073238;28;20199;-82
2023/04/12 05:04:46;;;;;;;5.03;1.87;;;;;;;-145.69;100.00;52329.53;5072669;28;20317;-82
2023/04/12 05:07:14;;;;;;;3.57;1.83;;;;;;;-145.69;100.00;52361.22;5073441;28;20202;-81
2023/04/12 05:09:40;;;;;;;3.03;1.90;;;;;;;-145.69;100.00;52331.50;5073008;28;20562;-81
2023/04/12 05:12:08;;;;;;;2.43;1.70;;;;;;;-145.69;100.00;52317.66;5072985;28;20199;-82
2023/04/12 05:14:37;;;;;;;3.13;1.70;;;;;;;-145.69;100.00;52349.31;5072945;28;20280;-81
2023/04/12 05:17:03;;;;;;;3.50;1.70;;;;;;;-145.69;100.00;52361.22;5062012;28;20191;-82
2023/04/12 05:19:30;;;;;;;2.37;1.77;;;;;;;-145.69;100.00;52323.59;5052842;28;20574;-81
2023/04/12 05:21:57;;;;;;;2.87;1.80;;;;;;;-145.69;100.00;52386.97;5052717;28;20585;-81
2023/04/12 05:24:24;;;;;;;3.00;1.30;;;;;;;-145.69;100.00;52333.47;5052801;28;20223;-80
2023/04/12 05:26:50;;;;;;;2.27;1.70;;;;;;;-145.69;100.00;52345.38;5069669;28;20195;-81
2023/04/12 05:29:18;;;;;;;6.50;1.60;;;;;;;-145.69;100.00;52339.44;5072978;28;20206;-81
2023/04/12 05:31:45;;;;;;;2.33;1.60;;;;;;;-145.69;100.00;52343.38;5072633;28;20206;-81
2023/04/12 05:34:11;;;;;;;2.10;1.60;;;;;;;-145.69;100.00;52359.22;5072959;28;20194;-82
2023/04/12 05:36:37;;;;;;;5.83;1.60;;;;;;;-145.69;100.00;52343.38;5073068;28;20222;-82
2023/04/12 05:39:04;;;;;;;5.80;1.80;;;;;;;-145.69;100.00;52329.53;5072928;28;20210;-81
2023/04/12 05:41:31;;;;;;;2.93;1.70;;;;;;;-145.69;100.00;52355.28;5072951;28;20198;-81
2023/04/12 05:43:57;;;;;;;4.57;1.50;;;;;;;-145.69;100.00;52359.22;5072234;28;20257;-82
2023/04/12 05:46:25;;;;;;;4.17;1.70;;;;;;;-145.69;100.00;52357.25;5072682;28;20234;-81
2023/04/12 05:48:51;;;;;;;2.10;1.40;;;;;;;-145.69;100.00;52351.31;5072999;28;20206;-80
2023/04/12 05:51:18;;;;;;;4.33;1.97;;;;;;;-145.69;100.00;52331.50;5073420;28;20205;-81
2023/04/12 05:53:44;;;;;;;3.27;1.70;;;;;;;-145.69;100.00;52357.25;5072801;28;20202;-81
2023/04/12 05:56:10;;;;;;;4.27;1.70;;;;;;;-145.69;100.00;52355.28;5072605;28;20195;-82
2023/04/12 05:58:37;;;;;;;3.20;1.70;;;;;;;-145.69;100.00;52343.38;5072774;28;20207;-82
2023/04/12 06:01:04;;;;;;;2.93;1.50;;;;;;;-145.69;100.00;52365.16;5072321;28;20191;-81
2023/04/12 06:03:32;;;;;;;6.53;1.57;;;;;;;-145.69;100.00;52377.06;5072454;28;20203;-82
2023/04/12 06:06:01;;;;;;;4.37;1.50;;;;;;;-145.69;100.00;52329.53;5072551;28;20649;-81
2023/04/12 06:08:28;;;;;;;4.43;1.50;;;;;;;-145.69;100.00;52329.53;5072523;28;20733;-81
2023/04/12 06:10:54;;;;;;;1.53;1.20;;;;;;;-145.69;100.00;52349.31;5072124;28;20242;-82
2023/04/12 06:13:21;;;;;;;2.37;1.40;;;;;;;-145.69;100.00;52379.03;5071722;28;20199;-81
2023/04/12 06:15:47;;;;;;;2.37;1.60;;;;;;;-145.69;100.00;52369.13;5072158;28;20256;-82
2023/04/12 06:18:14;;;;;;;3.53;1.83;;;;;;;-145.69;100.00;52341.41;5072637;28;20206;-82
2023/04/12 06:20:42;;;;;;;8.13;1.73;;;;;;;-145.69;100.00;52365.16;5072031;28;20199;-82
2023/04/12 06:23:09;;;;;;;5.07;1.73;;;;;;;-145.69;100.00;52319.63;5072605;28;20202;-82
2023/04/12 06:25:36;;;;;;;2.77;1.50;;;;;;;-145.69;100.00;52363.19;5072087;28;20616;-82
2023/04/12 06:28:02;;;;;;;4.57;1.80;;;;;;;-145.69;100.00;52369.13;5073503;28;20191;-83
2023/04/12 06:30:28;;;;;;;4.03;1.63;;;;;;;-145.69;100.00;52353.28;5076264;28;20207;-81
2023/04/12 06:32:55;;;;;;;2.57;1.50;;;;;;;-145.69;100.00;52375.06;5076153;28;20210;-82
2023/04/12 06:35:22;;;;;;;4.40;1.60;;;;;;;-145.69;100.00;52325.56;5076092;28;20213;-82
2023/04/12 06:37:50;;;;;;;2.80;1.50;;;;;;;-145.69;100.00;52345.38;5076043;28;20565;-82
2023/04/12 06:40:16;;;;;;;3.37;1.60;;;;;;;-145.69;100.00;52329.53;5075901;28;20210;-82
2023/04/12 06:42:43;;;;;;;4.43;1.60;;;;;;;-145.69;100.00;52381.00;5075380;28;20202;-80
2023/04/12 06:45:10;;;;;;;2.37;1.60;;;;;;;-145.69;100.00;52353.28;5074418;28;20273;-82
2023/04/12 06:47:37;;;;;;;3.87;1.70;;;;;;;-145.69;100.00;52339.44;5075876;28;20569;-81
2023/04/12 06:50:05;;;;;;;2.53;1.50;;;;;;;-145.69;100.00;52357.25;5075608;28;20201;-81
2023/04/12 06:52:32;;;;;;;3.83;1.50;;;;;;;-145.69;100.00;52333.47;5075616;28;20195;-81
2023/04/12 06:55:00;;;;;;;6.20;1.70;;;;;;;-145.69;100.00;52333.47;5075203;28;20207;-80
2023/04/12 06:57:26;;;;;;;3.43;2.07;;;;;;;-145.69;100.00;52357.25;5075636;28;20206;-81
2023/04/12 06:59:52;;;;;;;4.87;1.67;;;;;;;-145.69;100.00;52351.31;5075207;28;20206;-80
2023/04/12 07:02:19;;;;;;;3.00;1.67;;;;;;;-145.69;100.00;52329.53;5075617;28;20210;-81
2023/04/12 07:04:46;;;;;;;1.70;1.20;;;;;;;-145.69;100.00;52337.44;5075312;28;20194;-84
2023/04/12 07:07:12;;;;;;;3.83;1.73;;;;;;;-145.69;100.00;52347.34;5076000;28;20199;-85
2023/04/12 07:09:39;;;;;;;4.17;2.00;;;;;;;-145.69;100.00;52371.13;5075402;28;20198;-80
2023/04/12 07:12:07;;;;;;;8.23;1.50;;;;;;;-145.69;100.00;52309.72;5074998;28;20277;-82
2023/04/12 07:14:33;;;;;;;1.37;1.27;;;;;;;-145.69;100.00;52351.31;5075454;28;20198;-80
2023/04/12 07:17:00;;;;;;;2.40;1.17;;;;;;;-145.69;100.00;52343.38;5070642;28;20206;-82
2023/04/12 07:19:28;;;;;;;6.63;1.37;;;;;;;-145.69;100.00;52381.00;5075244;28;20199;-80
2023/04/12 07:21:55;;;;;;;3.20;1.10;;;;;;;-145.69;100.00;52329.53;5074983;28;20650;-81
2023/04/12 07:24:21;;;;;;;4.13;1.40;;;;;;;-145.69;100.00;52351.31;5074344;28;20445;-80
2023/04/12 07:26:47;;;;;;;3.07;1.23;;;;;;;-145.69;100.00;52341.41;5075208;28;20230;-86
2023/04/12 07:29:15;;;;;;;2.17;1.10;;;;;;;-145.69;100.00;52365.16;5075891;28;20202;-80
2023/04/12 07:31:42;;;;;;;3.13;1.10;;;;;;;-145.69;100.00;52317.66;5075499;28;20202;-82
2023/04/12 07:34:08;;;;;;;3.90;1.20;;;;;;;-145.69;100.00;52333.47;5075156;28;20195;-82
2023/04/12 07:36:35;;;;;;;4.70;1.20;;;;;;;-145.69;100.00;52369.13;5074709;28;20199;-81
2023/04/12 07:39:01;;;;;;;4.43;1.50;;;;;;;-145.69;100.00;52331.50;5074378;28;20195;-81
2023/04/12 07:41:28;;;;;;;3.57;1.10;;;;;;;-145.69;100.00;52353.28;5074902;28;20199;-81
2023/04/12 07:43:55;;;;;;;2.37;1.73;;;;;;;-145.69;100.00;52327.53;5074614;28;20258;-81
2023/04/12 07:46:23;;;;;;;2.50;0.90;;;;;;;-145.69;100.00;52325.56;5074447;28;20222;-81
2023/04/12 07:48:50;;;;;;;1.83;1.00;;;;;;;-145.69;100.00;52321.59;5074252;28;20285;-81
2023/04/12 07:51:17;;;;;;;4.67;1.30;;;;;;;-145.69;100.00;52301.81;5074494;28;20202;-81
2023/04/12 07:53:47;;;;;;;3.40;1.20;;;;;;;-145.69;100.00;52293.88;5075168;28;20557;-78
2023/04/12 07:56:14;;;;;;;3.05;1.15;;;;;;;-145.69;100.00;52345.38;5062113;28;20249;-83
2023/04/12 07:58:40;;;;;;;4.10;1.97;;;;;;;-145.69;100.00;52323.59;5055247;28;20203;-84
2023/04/12 08:01:07;;;;;;;2.07;1.20;;;;;;;-145.69;100.00;52283.97;5055517;28;20199;-84
2023/04/12 08:03:34;;;;;;;4.70;1.20;;;;;;;-145.69;100.00;52299.81;5058596;28;20199;-85
2023/04/12 08:06:01;;;;;;;2.17;1.40;;;;;;;-145.69;100.00;52301.81;5074524;28;20219;-83
2023/04/12 08:08:27;;;;;;;5.57;1.43;;;;;;;-145.69;100.00;52329.53;5074547;28;20199;-81
2023/04/12 08:10:54;;;;;;;2.87;1.40;;;;;;;-145.69;100.00;52325.56;5074241;28;20206;-79
2023/04/12 08:13:21;;;;;;;3.17;1.10;;;;;;;-145.69;100.00;52337.44;5071506;28;20681;-80
2023/04/12 08:15:47;;;;;;;2.70;1.43;;;;;;;-145.69;100.00;52307.75;5073727;28;20191;-79
2023/04/12 08:18:14;;;;;;;3.43;1.30;;;;;;;-145.69;100.00;52327.53;5073671;28;20571;-80
2023/04/12 08:20:43;;;;;;;2.40;1.30;;;;;;;-145.69;100.00;52260.22;5073416;28;20198;-79
2023/04/12 08:23:10;;;;;;;3.17;1.27;;;;;;;-145.69;100.00;52327.53;5073870;28;20201;-78
2023/04/12 08:25:36;;;;;;;3.17;1.23;;;;;;;-145.69;100.00;52301.81;5073452;28;20233;-81
2023/04/12 08:28:03;;;;;;;5.30;1.20;;;;;;;-145.69;100.00;52270.13;5073238;28;20810;-79
2023/04/12 08:30:30;;;;;;;3.63;1.20;;;;;;;-145.69;100.00;52305.75;5073550;28;20256;-80
2023/04/12 08:32:57;;;;;;;2.08;1.15;;;;;;;-145.69;100.00;52278.03;5073065;28;20204;-79
2023/04/12 08:35:23;;;;;;;4.07;1.50;;;;;;;-145.69;100.00;52282.00;5073454;28;20207;-81
2023/04/12 08:37:51;;;;;;;5.22;1.20;;;;;;;-145.69;100.00;52280.00;5073625;28;20202;-80
2023/04/12 08:40:18;;;;;;;4.13;1.23;;;;;;;-145.69;100.00;52303.78;5072996;28;20191;-80
2023/04/12 08:42:45;;;;;;;3.35;1.20;;;;;;;-145.69;100.00;52270.13;5073342;28;20198;-80
2023/04/12 08:45:12;;;;;;;3.63;1.30;;;;;;;-145.69;100.00;52274.06;5073454;28;20641;-82
2023/04/12 08:47:40;;;;;;;2.22;1.10;;;;;;;-145.69;100.00;52274.06;5072422;28;20202;-81
2023/04/12 08:50:09;;;;;;;1.80;0.98;;;;;;;-145.69;100.00;52274.06;5072678;28;20202;-80
2023/04/12 08:52:37;;;;;;;2.10;1.23;;;;;;;-145.69;100.00;52305.75;5073026;28;20677;-79
2023/04/12 08:55:06;;;;;;;3.08;1.30;;;;;;;-145.69;100.00;52246.34;5073074;28;20201;-79
2023/04/12 08:57:35;;;;;;;2.65;1.08;;;;;;;-145.69;91.03;52287.94;5073188;28;20554;-79
2023/04/12 09:00:02;;;;;;;1.80;1.00;;;;;;;-145.69;98.31;52254.28;5072897;28;20191;-80
2023/04/12 09:02:30;;;;;;;3.67;0.90;;;;;;;-145.69;92.75;52234.47;5073260;28;20232;-79
2023/04/12 09:04:57;;;;;;;2.75;0.93;;;;;;;-145.69;96.21;52293.88;5072993;28;20224;-80
2023/04/12 09:07:26;;;;;;;3.25;1.13;;;;;;;-145.69;98.05;52258.22;5072444;28;20693;-81
2023/04/12 09:09:53;;;;;;;3.30;1.20;;;;;;;-145.69;97.65;52289.91;5073069;28;20206;-80
2023/04/12 09:12:24;;;;;;;2.72;1.05;;;;;;;-145.69;100.00;52285.97;5072891;28;20203;-80
2023/04/12 09:15:07;;;;;;;2.80;1.10;;;;;;;-145.69;100.00;52274.06;5072626;28;20538;-80
2023/04/12 09:17:35;;;;;;;4.68;1.25;;;;;;;-145.69;100.00;52278.03;5072947;28;20225;-80
2023/04/12 09:20:03;;;;;;;3.83;1.20;;;;;;;-145.69;100.00;52283.97;5072330;28;20191;-80
2023/04/12 09:22:33;;;;;;;3.53;1.10;;;;;;;-145.69;100.00;52278.03;5064475;28;20558;-80
2023/04/12 09:25:00;;;;;;;2.63;1.33;;;;;;;-145.69;100.00;52276.06;5052879;28;20237;-80
2023/04/12 09:27:28;;;;;;;4.45;1.10;;;;;;;-145.69;100.00;52299.81;5071844;28;20230;-80
2023/04/12 09:30:06;;;;;;;3.60;1.40;;;;;;;-145.69;100.00;52266.16;5070634;28;20434;-80
2023/04/12 09:32:33;;;;;;;5.22;1.48;;;;;;;-145.69;100.00;52258.22;5072556;28;20206;-80
2023/04/12 09:35:01;;;;;;;4.55;1.30;;;;;;;-145.69;100.00;52270.13;5072470;28;20657;-80
2023/04/12 09:37:27;;;;;;;3.25;1.40;;;;;;;-145.69;100.00;52303.78;5072538;28;20210;-79
2023/04/12 09:39:59;;;;;;;2.90;1.23;;;;;;;-145.69;100.00;52278.03;5071201;28;20203;-80
2023/04/12 09:42:26;;;;;;;2.37;1.07;;;;;;;-145.69;100.00;52301.81;5072208;28;20344;-80
2023/04/12 09:44:56;;;;;;;5.30;1.43;;;;;;;-145.69;100.00;52282.00;5071835;28;20233;-79
2023/04/12 09:47:23;;;;;;;4.10;1.20;;;;;;;-145.69;100.00;52278.03;5072714;28;20233;-80
2023/04/12 09:49:50;;;;;;;7.43;1.60;;;;;;;-145.69;100.00;52293.88;5072525;28;20653;-79
2023/04/12 09:52:16;;;;;;;5.63;1.53;;;;;;;-145.69;100.00;52309.72;5072545;28;20205;-78
2023/04/12 09:54:45;;;;;;;3.10;1.97;;;;;;;-145.69;100.00;52276.06;5072825;28;20209;-79
2023/04/12 09:57:12;;;;;;;2.93;1.40;;;;;;;-145.69;100.00;52317.66;5072142;28;20195;-78
2023/04/12 09:59:40;;;;;;;5.27;1.90;;;;;;;-145.69;100.00;52301.81;5072656;28;20209;-79
2023/04/12 10:02:14;;;;;;;8.87;1.33;;;;;;;-145.69;100.00;52303.78;5073264;28;20217;-78
2023/04/12 10:04:42;;;;;;;2.93;1.43;;;;;;;-145.69;100.00;52317.66;5075410;28;20195;-79
2023/04/12 10:07:09;;;;;;;4.07;1.40;;;;;;;-145.69;100.00;52297.84;5075785;28;20230;-78
2023/04/12 10:09:38;;;;;;;2.67;1.10;;;;;;;-145.69;100.00;52278.03;5076431;28;20565;-78
2023/04/12 10:12:05;;;;;;;4.40;1.33;;;;;;;-145.69;100.00;52276.06;5076393;28;20241;-79
2023/04/12 10:14:32;;;;;;;5.03;1.40;;;;;;;-145.69;100.00;52285.97;5076382;28;20242;-80
2023/04/12 10:17:00;;;;;;;4.40;1.60;;;;;;;-145.69;100.00;52287.94;5075799;28;20190;-80
2023/04/12 10:19:32;;;;;;;5.57;1.37;;;;;;;-145.69;100.00;52293.88;5076121;28;20194;-79
2023/04/12 10:21:59;;;;;;;4.27;1.60;;;;;;;-145.69;100.00;52282.00;5075702;28;20237;-82
2023/04/12 10:24:27;;;;;;;2.47;1.17;;;;;;;-145.69;100.00;52270.13;5075951;28;20198;-80
2023/04/12 10:26:59;;;;;;;2.93;1.07;;;;;;;-145.69;100.00;52246.34;5075136;28;20580;-81
2023/04/12 10:29:30;;;;;;;1.93;1.37;;;;;;;-145.69;100.00;52325.56;5075984;28;20203;-78
2023/04/12 10:31:57;;;;;;;3.63;1.13;;;;;;;-145.69;100.00;52305.75;5075937;28;20194;-80
2023/04/12 10:34:29;;;;;;;5.37;1.33;;;;;;;-145.69;100.00;52282.00;5074911;28;20206;-79
2023/04/12 10:36:57;;;;;;;3.63;1.33;;;;;;;-145.69;100.00;52305.75;5075757;28;20264;-78
2023/04/12 10:39:43;;;;;;;4.13;1.47;;;;;;;-145.69;100.00;52283.97;5075798;28;20195;-79
2023/04/12 10:42:25;;;;;;;2.53;1.27;;;;;;;-145.69;100.00;52301.81;5074663;28;20205;-76
2023/04/12 10:44:54;;;;;;;1.73;1.10;;;;;;;-145.69;100.00;52266.16;5075357;28;20305;-79
2023/04/12 10:48:00;;;;;;;2.60;1.20;;;;;;;-145.69;100.00;52317.66;5075449;28;20226;-78
2023/04/12 10:50:30;;;;;;;1.87;1.10;;;;;;;-145.69;100.00;52282.00;5075798;28;20635;-79
2023/04/12 10:53:23;;;;;;;1.83;1.07;;;;;;;-145.69;100.00;52299.81;5075506;28;20663;-80
2023/04/12 10:55:50;;;;;;;2.60;1.00;;;;;;;-145.69;100.00;52321.59;5075155;28;20260;-80
2023/04/12 10:58:55;;;;;;;1.47;0.80;;;;;;;-145.69;100.00;52333.47;5075456;28;20669;-80
2023/04/12 11:01:21;;;;;;;3.93;1.13;;;;;;;-145.69;100.00;52299.81;5075573;28;20199;-81
2023/04/12 11:04:12;;;;;;;2.33;0.90;;;;;;;-145.69;100.00;52321.59;5075413;28;20198;-79
2023/04/12 11:07:00;;;;;;;2.03;0.90;;;;;;;-145.69;100.00;52307.75;5075165;28;20230;-80
2023/04/12 11:09:29;;;;;;;1.60;0.77;;;;;;;-145.69;100.00;52301.81;5075408;28;20539;-79
2023/04/12 11:12:10;;;;;;;0.60;0.60;;;;;;;-145.69;100.00;52325.56;5075426;28;20588;-80
2023/04/12 11:14:42;;;;;;;2.63;0.80;;;;;;;-145.69;100.00;52303.78;5075070;28;20318;-79